createdAt,value
2024-03-13T00:02:13.864Z,177.10
2024-03-13T00:04:48.630Z,176.02
2024-03-13T00:07:16.954Z,176.90
2024-03-13T00:09:47.929Z,186.27
2024-03-13T00:12:18.637Z,186.63
2024-03-13T00:14:54.362Z,187.73
2024-03-13T00:17:22.036Z,173.70
2024-03-13T00:19:52.426Z,182.32
2024-03-13T00:22:20.494Z,178.23
2024-03-13T00:24:53.200Z,184.95
2024-03-13T00:27:21.869Z,176.80
2024-03-13T00:29:49.708Z,175.23
2024-03-13T00:32:19.240Z,177.52
2024-03-13T00:34:46.689Z,166.13
2024-03-13T00:37:17.909Z,169.48
2024-03-13T00:39:45.259Z,176.50
2024-03-13T00:42:13.133Z,174.95
2024-03-13T00:44:42.668Z,168.77
2024-03-13T00:47:12.907Z,176.50
2024-03-13T00:49:43.437Z,171.75
2024-03-13T00:52:11.586Z,170.93
2024-03-13T00:54:45.890Z,163.35
2024-03-13T00:57:15.079Z,168.38
2024-03-13T00:59:41.957Z,168.45
2024-03-13T01:02:09.520Z,166.82
2024-03-13T01:04:39.190Z,179.68
2024-03-13T01:07:09.577Z,177.48
2024-03-13T01:09:39.158Z,200.45
2024-03-13T01:12:07.522Z,195.38
2024-03-13T01:14:37.677Z,208.93
2024-03-13T01:17:05.125Z,233.80
2024-03-13T01:19:36.171Z,219.73
2024-03-13T01:22:16.439Z,232.95
2024-03-13T01:24:44.768Z,228.93
2024-03-13T01:27:11.885Z,207.75
2024-03-13T01:29:43.260Z,208.25
2024-03-13T01:32:12.452Z,219.70
2024-03-13T01:34:39.568Z,209.55
2024-03-13T01:37:22.610Z,205.82
2024-03-13T01:39:53.174Z,198.23
2024-03-13T01:42:34.418Z,199.07
2024-03-13T01:45:20.274Z,196.70
2024-03-13T01:48:03.528Z,201.95
2024-03-13T01:50:44.290Z,199.18
2024-03-13T01:53:26.204Z,189.75
2024-03-13T01:55:56.116Z,187.32
2024-03-13T01:58:41.071Z,217.68
2024-03-13T02:01:22.599Z,200.55
2024-03-13T02:03:51.960Z,201.48
2024-03-13T02:06:19.662Z,203.32
2024-03-13T02:08:50.193Z,203.27
2024-03-13T02:11:17.442Z,206.90
2024-03-13T02:13:44.623Z,198.90
2024-03-13T02:16:11.561Z,198.45
2024-03-13T02:18:42.044Z,205.50
2024-03-13T02:21:09.245Z,197.27
2024-03-13T02:23:40.439Z,191.70
2024-03-13T02:26:10.432Z,192.45
2024-03-13T02:28:40.752Z,195.52
2024-03-13T02:31:08.259Z,179.38
2024-03-13T02:33:40.238Z,183.27
2024-03-13T02:36:07.799Z,183.23
2024-03-13T02:38:36.127Z,175.57
2024-03-13T02:41:03.613Z,174.98
2024-03-13T02:43:32.135Z,177.48
2024-03-13T02:46:03.632Z,176.52
2024-03-13T02:48:30.984Z,186.60
2024-03-13T02:50:58.034Z,197.27
2024-03-13T02:53:25.566Z,206.93
2024-03-13T02:55:56.423Z,202.73
2024-03-13T02:58:24.697Z,212.70
2024-03-13T03:00:52.076Z,220.85
2024-03-13T03:03:21.892Z,221.38
2024-03-13T03:05:48.752Z,221.57
2024-03-13T03:08:16.362Z,230.07
2024-03-13T03:10:43.323Z,232.13
2024-03-13T03:13:12.145Z,226.75
2024-03-13T03:15:40.767Z,224.25
2024-03-13T03:18:09.074Z,229.52
2024-03-13T03:20:38.195Z,227.90
2024-03-13T03:23:05.062Z,222.85
2024-03-13T03:25:32.192Z,221.60
2024-03-13T03:28:01.342Z,240.65
2024-03-13T03:30:32.045Z,221.25
2024-03-13T03:33:02.944Z,232.10
2024-03-13T03:35:33.367Z,227.35
2024-03-13T03:38:05.571Z,220.30
2024-03-13T03:40:35.056Z,215.55
2024-03-13T03:43:02.284Z,210.20
2024-03-13T03:45:30.366Z,205.80
2024-03-13T03:48:04.539Z,192.10
2024-03-13T03:50:34.838Z,190.52
2024-03-13T03:53:02.210Z,161.25
2024-03-13T03:55:29.255Z,144.57
2024-03-13T03:57:56.080Z,137.82
2024-03-13T04:00:24.004Z,127.85
2024-03-13T04:02:53.105Z,118.50
2024-03-13T04:05:21.607Z,117.00
2024-03-13T04:07:50.672Z,103.20
2024-03-13T04:10:21.668Z,102.32
2024-03-13T04:12:51.100Z,99.35
2024-03-13T04:15:23.181Z,105.00
2024-03-13T04:17:54.683Z,98.40
2024-03-13T04:20:23.419Z,104.00
2024-03-13T04:22:52.124Z,98.70
2024-03-13T04:25:20.872Z,95.50
2024-03-13T04:27:50.306Z,90.07
2024-03-13T04:30:17.050Z,89.47
2024-03-13T04:32:44.153Z,94.45
2024-03-13T04:35:13.224Z,91.90
2024-03-13T04:37:40.794Z,91.28
2024-03-13T04:40:11.516Z,92.05
2024-03-13T04:42:39.266Z,84.82
2024-03-13T04:45:08.391Z,80.32
2024-03-13T04:47:40.789Z,78.72
2024-03-13T04:50:10.543Z,79.32
2024-03-13T04:52:39.661Z,79.53
2024-03-13T04:55:07.921Z,79.88
2024-03-13T04:57:35.152Z,77.60
2024-03-13T05:00:03.329Z,80.65
2024-03-13T05:02:30.361Z,77.40
2024-03-13T05:04:58.958Z,80.53
2024-03-13T05:07:26.521Z,78.70
2024-03-13T05:09:57.121Z,74.78
2024-03-13T05:12:27.966Z,84.53
2024-03-13T05:14:55.964Z,106.50
2024-03-13T05:17:26.286Z,175.82
2024-03-13T05:19:53.526Z,208.02
2024-03-13T05:22:21.283Z,197.20
2024-03-13T05:24:51.088Z,299.23
2024-03-13T05:27:19.123Z,315.55
2024-03-13T05:29:49.884Z,214.82
2024-03-13T05:32:17.481Z,429.77
2024-03-13T05:34:44.529Z,167.30
2024-03-13T05:37:15.650Z,165.57
2024-03-13T05:39:42.890Z,210.43
2024-03-13T05:42:12.265Z,167.73
2024-03-13T05:44:40.913Z,168.50
2024-03-13T05:47:08.256Z,175.90
2024-03-13T05:49:37.391Z,149.95
2024-03-13T05:52:06.332Z,156.90
2024-03-13T05:54:34.349Z,149.82
2024-03-13T05:57:01.674Z,132.70
2024-03-13T05:59:31.286Z,132.32
2024-03-13T06:01:58.776Z,121.13
2024-03-13T06:04:26.272Z,132.25
2024-03-13T06:06:53.812Z,128.68
2024-03-13T06:09:21.271Z,130.35
2024-03-13T06:11:50.549Z,139.45
2024-03-13T06:14:18.491Z,130.65
2024-03-13T06:16:46.536Z,135.73
2024-03-13T06:19:14.996Z,132.40
2024-03-13T06:21:42.482Z,129.65
2024-03-13T06:24:11.264Z,128.52
2024-03-13T06:26:45.941Z,122.45
2024-03-13T06:29:27.973Z,112.22
2024-03-13T06:31:55.306Z,115.05
2024-03-13T06:34:24.662Z,108.80
2024-03-13T06:36:51.833Z,113.90
2024-03-13T06:39:22.652Z,115.15
2024-03-13T06:41:52.111Z,110.78
2024-03-13T06:44:19.154Z,113.07
2024-03-13T06:46:48.459Z,112.47
2024-03-13T06:49:18.177Z,91.38
2024-03-13T06:51:45.078Z,104.40
2024-03-13T06:54:13.136Z,106.82
2024-03-13T06:56:45.079Z,97.78
2024-03-13T06:59:18.215Z,103.82
2024-03-13T07:01:48.553Z,103.07
2024-03-13T07:04:16.976Z,103.10
2024-03-13T07:06:44.566Z,95.38
2024-03-13T07:09:11.963Z,91.05
2024-03-13T07:11:40.144Z,87.40
2024-03-13T07:14:13.360Z,84.00
2024-03-13T07:16:40.426Z,84.05
2024-03-13T07:19:09.326Z,78.55
2024-03-13T07:21:36.624Z,82.63
2024-03-13T07:24:04.435Z,85.93
2024-03-13T07:26:35.500Z,85.35
2024-03-13T07:29:02.514Z,83.68
2024-03-13T07:31:30.742Z,77.45
2024-03-13T07:33:58.564Z,74.45
2024-03-13T07:36:28.067Z,76.57
2024-03-13T07:38:56.484Z,75.40
2024-03-13T07:41:23.475Z,73.65
2024-03-13T07:43:52.502Z,74.25
2024-03-13T07:46:23.980Z,68.03
2024-03-13T07:48:52.298Z,65.80
2024-03-13T07:51:19.544Z,66.00
2024-03-13T07:53:46.992Z,62.83
2024-03-13T07:56:16.264Z,61.30
2024-03-13T07:58:44.436Z,63.30
2024-03-13T08:01:13.136Z,63.20
2024-03-13T08:03:40.272Z,60.90
2024-03-13T09:07:56.759Z,56.53
2024-03-13T09:10:23.790Z,50.72
2024-03-13T09:12:51.982Z,57.08
2024-03-13T09:15:19.175Z,53.08
2024-03-13T09:17:47.868Z,57.03
2024-03-13T09:20:17.087Z,55.08
2024-03-13T09:22:47.001Z,51.85
2024-03-13T09:25:14.079Z,53.80
2024-03-13T09:27:41.083Z,53.15
2024-03-13T09:30:09.590Z,50.03
2024-03-13T09:32:38.150Z,54.60
2024-03-13T09:35:10.604Z,48.83
2024-03-13T09:37:38.891Z,50.85
2024-03-13T09:40:08.742Z,50.75
2024-03-13T09:42:37.887Z,48.38
2024-03-13T09:45:17.845Z,47.72
2024-03-13T09:47:45.918Z,43.08
2024-03-13T09:50:15.490Z,42.25
2024-03-13T09:55:16.857Z,44.95
2024-03-13T09:57:49.942Z,50.17
2024-03-13T10:00:20.777Z,46.85
2024-03-13T10:02:52.527Z,53.58
2024-03-13T10:05:20.947Z,48.80
2024-03-13T10:07:52.227Z,52.30
2024-03-13T10:10:28.013Z,47.10
2024-03-13T10:13:03.467Z,47.40
2024-03-13T10:15:30.919Z,52.72
2024-03-13T10:18:15.254Z,66.68
2024-03-13T10:21:10.174Z,42.50
2024-03-13T10:23:41.793Z,45.50
2024-03-13T10:26:10.681Z,46.95
2024-03-13T10:28:39.305Z,47.50
2024-03-13T10:31:06.616Z,45.45
2024-03-13T10:33:36.056Z,47.83
2024-03-13T10:36:05.327Z,45.67
2024-03-13T10:38:35.299Z,42.53
2024-03-13T10:41:05.865Z,40.60
2024-03-13T10:43:33.710Z,39.30
2024-03-13T10:46:08.694Z,42.38
2024-03-13T10:48:37.499Z,38.88
2024-03-13T10:51:13.481Z,37.80
2024-03-13T10:53:46.956Z,39.80
2024-03-13T10:56:20.278Z,42.22
2024-03-13T10:58:48.592Z,42.55
2024-03-13T11:01:19.552Z,44.20
2024-03-13T11:03:48.598Z,43.97
2024-03-13T11:06:17.550Z,44.80
2024-03-13T11:08:45.770Z,44.83
2024-03-13T11:11:20.851Z,46.05
2024-03-13T11:13:58.553Z,42.83
2024-03-13T11:16:28.844Z,42.78
2024-03-13T11:18:57.894Z,39.60
2024-03-13T11:21:39.470Z,35.17
2024-03-13T11:24:12.581Z,34.97
2024-03-13T11:26:40.702Z,34.58
2024-03-13T11:29:15.856Z,35.28
2024-03-13T11:31:43.348Z,36.38
2024-03-13T11:34:16.136Z,33.65
2024-03-13T11:36:46.806Z,30.27
2024-03-13T11:39:17.741Z,27.25
2024-03-13T11:41:46.476Z,30.65
2024-03-13T11:44:21.523Z,27.45
2024-03-13T11:46:51.540Z,27.05
2024-03-13T11:49:21.331Z,28.13
2024-03-13T11:52:05.795Z,27.00
2024-03-13T11:54:34.401Z,26.08
2024-03-13T11:57:19.153Z,25.60
2024-03-13T11:59:56.096Z,23.50
2024-03-13T12:02:32.173Z,25.33
2024-03-13T12:05:08.423Z,23.10
2024-03-13T12:07:44.355Z,24.77
2024-03-13T12:10:21.583Z,22.48
2024-03-13T12:12:49.305Z,23.55
2024-03-13T12:15:20.551Z,22.52
2024-03-13T12:17:52.864Z,20.27
2024-03-13T12:20:23.769Z,24.40
2024-03-13T12:22:52.177Z,20.27
2024-03-13T12:25:21.562Z,24.27
2024-03-13T12:27:53.018Z,24.17
2024-03-13T12:30:22.499Z,21.52
2024-03-13T12:32:59.895Z,21.58
2024-03-13T12:35:28.861Z,21.27
2024-03-13T12:37:59.041Z,22.00
2024-03-13T12:40:27.318Z,17.60
2024-03-13T12:43:12.120Z,19.45
2024-03-13T12:45:40.583Z,18.20
2024-03-13T12:48:11.059Z,18.77
2024-03-13T12:50:38.532Z,22.10
2024-03-13T12:53:06.399Z,19.83
2024-03-13T12:55:35.312Z,17.67
2024-03-13T12:58:08.773Z,19.27
2024-03-13T13:00:44.483Z,20.30
2024-03-13T13:03:12.722Z,20.08
2024-03-13T13:05:40.879Z,19.27
2024-03-13T13:08:14.733Z,20.08
2024-03-13T13:10:43.647Z,18.08
2024-03-13T13:13:10.603Z,19.77
2024-03-13T13:15:39.098Z,17.65
2024-03-13T13:18:09.568Z,18.65
2024-03-13T13:20:41.453Z,17.98
2024-03-13T13:23:11.217Z,20.08
2024-03-13T13:25:39.103Z,17.73
2024-03-13T13:28:12.098Z,17.77
2024-03-13T13:30:44.321Z,14.25
2024-03-13T13:33:11.999Z,13.82
2024-03-13T13:35:44.638Z,14.40
2024-03-13T13:38:13.474Z,14.85
2024-03-13T13:40:43.901Z,15.15
2024-03-13T13:43:10.971Z,13.88
2024-03-13T13:45:39.320Z,12.68
2024-03-13T13:48:11.142Z,13.75
2024-03-13T13:50:38.809Z,13.45
2024-03-13T13:53:07.015Z,12.60
2024-03-13T13:58:06.727Z,11.55
2024-03-13T14:00:37.045Z,10.75
2024-03-13T14:03:04.246Z,11.40
2024-03-13T14:05:40.893Z,11.30
2024-03-13T14:08:09.587Z,17.30
2024-03-13T14:10:41.999Z,13.35
2024-03-13T14:13:09.010Z,11.10
2024-03-13T14:15:36.029Z,11.63
2024-03-13T14:18:07.692Z,12.25
2024-03-13T14:20:35.171Z,11.32
2024-03-13T14:23:03.523Z,14.85
2024-03-13T14:25:33.707Z,11.70
2024-03-13T14:28:01.420Z,13.40
2024-03-13T14:30:30.961Z,14.88
2024-03-13T14:32:59.448Z,13.55
2024-03-13T14:35:27.316Z,14.95
2024-03-13T14:37:54.190Z,15.48
2024-03-13T14:40:24.035Z,13.73
2024-03-13T14:42:54.940Z,13.13
2024-03-13T14:45:24.554Z,13.15
2024-03-13T14:47:53.966Z,10.50
2024-03-13T14:50:21.870Z,12.00
2024-03-13T14:53:03.605Z,13.25
2024-03-13T14:55:36.035Z,12.30
2024-03-13T14:58:05.027Z,12.73
2024-03-13T15:00:34.235Z,16.10
2024-03-13T15:03:01.480Z,13.68
2024-03-13T15:05:33.721Z,13.68
2024-03-13T15:08:06.396Z,13.40
2024-03-13T15:10:34.102Z,13.57
2024-03-13T15:13:03.391Z,18.10
2024-03-13T15:15:31.039Z,15.98
2024-03-13T15:18:01.936Z,16.33
2024-03-13T15:20:29.406Z,82.50
2024-03-13T15:22:56.790Z,80.93
2024-03-13T15:25:24.497Z,20.77
2024-03-13T15:27:52.616Z,44.03
2024-03-13T15:30:20.505Z,82.22
2024-03-13T15:32:48.240Z,64.15
2024-03-13T15:35:15.996Z,33.42
2024-03-13T15:37:44.058Z,24.65
2024-03-13T15:40:17.486Z,24.73
2024-03-13T15:42:48.957Z,24.50
2024-03-13T15:45:19.317Z,28.58
2024-03-13T15:47:47.787Z,31.80
2024-03-13T15:50:25.411Z,29.67
2024-03-13T15:52:58.928Z,29.90
2024-03-13T15:55:25.938Z,34.97
2024-03-13T15:57:53.671Z,43.28
2024-03-13T16:00:26.048Z,51.85
2024-03-13T16:02:56.871Z,49.53
2024-03-13T16:05:27.815Z,39.70
2024-03-13T16:08:16.278Z,36.80
2024-03-13T16:10:44.499Z,45.80
2024-03-13T16:13:12.067Z,42.58
2024-03-13T16:15:39.487Z,37.47
2024-03-13T16:18:06.462Z,38.30
2024-03-13T16:20:37.806Z,31.02
2024-03-13T16:23:07.337Z,39.88
2024-03-13T16:25:34.865Z,46.38
2024-03-13T16:28:02.046Z,56.47
2024-03-13T16:30:31.511Z,59.85
2024-03-13T16:33:00.868Z,61.22
2024-03-13T16:35:35.488Z,62.15
2024-03-13T16:38:03.194Z,60.35
2024-03-13T16:40:30.384Z,50.97
2024-03-13T16:42:58.934Z,49.47
2024-03-13T16:45:27.518Z,42.42
2024-03-13T16:47:54.701Z,34.03
2024-03-13T16:50:23.495Z,26.08
2024-03-13T16:52:50.955Z,32.70
2024-03-13T16:55:18.289Z,34.25
2024-03-13T16:57:46.044Z,34.65
2024-03-13T17:00:17.943Z,35.42
2024-03-13T17:02:46.350Z,34.40
2024-03-13T17:05:16.033Z,33.83
2024-03-13T17:07:44.444Z,39.08
2024-03-13T17:10:11.476Z,31.15
2024-03-13T17:12:39.936Z,19.75
2024-03-13T17:15:09.231Z,18.77
2024-03-13T17:17:38.991Z,40.70
2024-03-13T17:20:11.650Z,27.20
2024-03-13T17:22:39.187Z,25.55
2024-03-13T17:25:14.286Z,23.85
2024-03-13T17:27:43.577Z,36.28
2024-03-13T17:30:14.809Z,34.13
2024-03-13T17:32:44.132Z,30.95
2024-03-13T17:35:12.184Z,33.28
2024-03-13T17:37:39.282Z,34.17
2024-03-13T17:40:15.173Z,31.60
2024-03-13T17:42:45.728Z,27.30
2024-03-13T17:45:13.363Z,27.25
2024-03-13T17:47:41.049Z,20.17
2024-03-13T17:50:13.301Z,27.55
2024-03-13T17:52:41.602Z,27.38
2024-03-13T17:55:14.765Z,27.85
2024-03-13T17:57:42.060Z,39.45
2024-03-13T18:00:12.229Z,31.98
2024-03-13T18:02:39.886Z,30.10
2024-03-13T18:05:12.007Z,26.30
2024-03-13T18:07:40.214Z,31.42
2024-03-13T18:10:07.949Z,37.78
2024-03-13T18:12:36.663Z,33.72
2024-03-13T18:15:04.087Z,42.60
2024-03-13T18:17:32.257Z,42.33
2024-03-13T18:19:59.686Z,35.25
2024-03-13T18:22:26.615Z,34.95
2024-03-13T18:24:55.599Z,40.03
2024-03-13T18:27:23.174Z,41.33
2024-03-13T18:29:50.780Z,35.90
2024-03-13T18:32:18.021Z,42.53
2024-03-13T18:34:48.230Z,43.22
2024-03-13T18:37:15.473Z,44.85
2024-03-13T18:39:43.927Z,47.05
2024-03-13T18:42:11.708Z,50.45
2024-03-13T18:44:39.503Z,44.08
2024-03-13T18:47:07.478Z,50.47
2024-03-13T18:49:35.669Z,43.92
2024-03-13T18:52:06.802Z,47.70
2024-03-13T18:54:36.037Z,45.85
2024-03-13T18:57:04.520Z,49.50
2024-03-13T18:59:33.252Z,49.97
2024-03-13T19:02:00.392Z,57.05
2024-03-13T19:04:28.950Z,86.13
2024-03-13T19:06:56.660Z,68.68
2024-03-13T19:09:23.818Z,69.90
2024-03-13T19:11:51.247Z,91.15
2024-03-13T19:14:18.158Z,170.85
2024-03-13T19:16:45.505Z,142.05
2024-03-13T19:19:13.964Z,117.38
2024-03-13T19:21:43.808Z,74.25
2024-03-13T19:24:13.636Z,67.72
2024-03-13T19:26:40.463Z,70.05
2024-03-13T19:29:07.481Z,99.38
2024-03-13T19:31:39.264Z,120.75
2024-03-13T19:34:11.655Z,134.57
2024-03-13T19:36:39.040Z,155.38
2024-03-13T19:39:06.171Z,143.55
2024-03-13T19:41:33.616Z,125.60
2024-03-13T19:44:01.366Z,120.50
2024-03-13T19:46:36.367Z,100.55
2024-03-13T19:49:04.698Z,66.85
2024-03-13T19:51:32.074Z,54.83
2024-03-13T19:54:00.639Z,51.22
2024-03-13T19:56:27.994Z,51.80
2024-03-13T19:58:56.067Z,46.63
2024-03-13T20:01:23.509Z,57.10
2024-03-13T20:03:50.681Z,48.75
2024-03-13T20:06:17.748Z,52.67
2024-03-13T20:08:45.580Z,46.13
2024-03-13T20:11:13.584Z,36.70
2024-03-13T20:13:43.168Z,36.85
2024-03-13T20:16:13.417Z,34.35
2024-03-13T20:18:44.218Z,34.80
2024-03-13T20:21:12.245Z,35.00
2024-03-13T20:23:43.091Z,37.65
2024-03-13T20:26:10.372Z,36.97
2024-03-13T20:28:40.623Z,40.53
2024-03-13T20:31:08.781Z,39.15
2024-03-13T20:33:36.357Z,35.28
2024-03-13T20:36:03.741Z,36.17
2024-03-13T20:38:32.625Z,33.65
2024-03-13T20:40:59.595Z,30.33
2024-03-13T20:43:27.524Z,28.02
2024-03-13T20:45:55.082Z,41.45
2024-03-13T20:48:22.566Z,60.03
2024-03-13T20:50:50.018Z,43.35
2024-03-13T20:53:19.421Z,39.95
2024-03-13T20:55:47.494Z,191.00
2024-03-13T20:58:15.177Z,79.85
2024-03-13T21:00:43.385Z,32.50
2024-03-13T21:03:10.388Z,42.67
2024-03-13T21:05:37.574Z,28.05
2024-03-13T21:08:04.767Z,29.25
2024-03-13T21:10:32.031Z,30.27
2024-03-13T21:12:59.198Z,24.35
2024-03-13T21:15:29.176Z,34.40
2024-03-13T21:17:56.513Z,29.85
2024-03-13T21:20:25.469Z,30.23
2024-03-13T21:22:54.501Z,33.50
2024-03-13T21:25:23.052Z,136.48
2024-03-13T21:27:50.487Z,133.68
2024-03-13T21:30:17.443Z,31.42
2024-03-13T21:32:45.857Z,29.38
2024-03-13T21:35:13.376Z,34.53
2024-03-13T21:37:41.764Z,36.25
2024-03-13T21:40:17.174Z,29.85
2024-03-13T21:42:46.578Z,34.60
2024-03-13T21:45:14.540Z,41.50
2024-03-13T21:47:45.551Z,68.88
2024-03-13T21:50:12.932Z,104.05
2024-03-13T21:52:43.333Z,111.10
2024-03-13T21:55:11.467Z,114.80
2024-03-13T21:57:39.008Z,123.85
2024-03-13T22:00:07.415Z,115.90
2024-03-13T22:02:34.393Z,34.92
2024-03-13T22:05:05.392Z,42.55
2024-03-13T22:07:32.931Z,37.15
2024-03-13T22:10:05.314Z,59.85
2024-03-13T22:12:32.248Z,86.25
2024-03-13T22:15:06.763Z,59.35
2024-03-13T22:17:35.131Z,44.33
2024-03-13T22:20:05.316Z,49.75
2024-03-13T22:22:34.473Z,35.00
2024-03-13T22:25:01.416Z,34.28
2024-03-13T22:27:29.922Z,39.33
2024-03-13T22:29:57.838Z,48.92
2024-03-13T22:32:30.935Z,41.53
2024-03-13T22:34:58.265Z,39.25
2024-03-13T22:37:25.539Z,35.38
2024-03-13T22:39:52.814Z,30.58
2024-03-13T22:42:20.813Z,31.08
2024-03-13T22:44:48.638Z,23.85
2024-03-13T22:47:16.433Z,26.23
2024-03-13T22:49:46.540Z,34.15
2024-03-13T22:52:15.648Z,39.90
2024-03-13T22:54:42.524Z,45.88
2024-03-13T22:57:10.772Z,48.08
2024-03-13T22:59:37.990Z,108.45
2024-03-13T23:02:05.138Z,103.90
2024-03-13T23:04:35.519Z,234.18
2024-03-13T23:07:04.675Z,61.22
2024-03-13T23:09:32.840Z,42.13
2024-03-13T23:12:04.405Z,42.38
2024-03-13T23:14:33.401Z,33.22
2024-03-13T23:17:11.530Z,37.08
2024-03-13T23:19:39.064Z,40.28
2024-03-13T23:22:07.835Z,40.13
2024-03-13T23:24:35.199Z,39.85
2024-03-13T23:27:03.459Z,46.22
2024-03-13T23:29:31.469Z,44.88
2024-03-13T23:31:58.414Z,52.92
2024-03-13T23:34:26.385Z,55.38
2024-03-13T23:36:53.353Z,52.60
2024-03-13T23:39:25.524Z,41.92
2024-03-13T23:41:54.168Z,47.65
2024-03-13T23:44:21.569Z,47.03
2024-03-13T23:46:51.812Z,46.17
2024-03-13T23:49:23.897Z,41.80
2024-03-13T23:51:52.949Z,49.13
2024-03-13T23:54:19.932Z,47.42
2024-03-13T23:56:47.030Z,42.05
2024-03-13T23:59:14.513Z,43.40
